METAR Data
IDs: Format: Raw Decoded Include TAF

Data at: 1207 UTC 07 Oct 2022

KWVI 071153Z AUTO 00000KT 3/4SM BR VV003 10/10 A3009 RMK AO2 RAB18E27 SLP188 P0000 60000 T01000100 10117 20100 55000
KWVI 071140Z AUTO 00000KT 1 1/4SM BR OVC003 11/11 A3009 RMK AO2 RAB18E27 P0000 T01060106
KWVI 071114Z AUTO 00000KT 1/2SM FG VV003 11/11 A3009 RMK AO2 T01110111
KWVI 071104Z AUTO 00000KT 1SM BR VV003 10/10 A3009 RMK AO2 T01000100
KWVI 071053Z AUTO 00000KT 3/4SM BR VV003 11/11 A3009 RMK AO2 SLP188 T01110111
KWVI 071044Z AUTO 00000KT 1SM BR VV003 11/11 A3009 RMK AO2 T01060106
KWVI 070953Z AUTO 23003KT 1/2SM FG VV003 11/11 A3009 RMK AO2 SLP188 T01110111
KWVI 070946Z AUTO 00000KT 1 1/4SM BR OVC003 11/11 A3009 RMK AO2 T01110111
KWVI 070938Z AUTO 00000KT 2SM BR OVC003 11/11 A3009 RMK AO2 T01110111
KWVI 070921Z AUTO 00000KT 1SM BR OVC003 11/11 A3009 RMK AO2 T01110111
KWVI 070910Z AUTO 21003KT 1 3/4SM BR OVC003 11/11 A3009 RMK AO2 T01110111
KWVI 070853Z AUTO 19003KT 4SM BR OVC002 11/11 A3009 RMK AO2 SLP188 T01110111 50001
KWVI 070848Z AUTO 19003KT 2SM BR OVC002 11/11 A3009 RMK AO2
KWVI 070842Z AUTO 18003KT 1 1/4SM BR OVC002 12/12 A3009 RMK AO2 T01170117
KWVI 070806Z AUTO 18004KT 1/2SM FG VV002 12/12 A3009 RMK AO2 T01170117
KWVI 070753Z AUTO 21003KT 1/4SM FG VV002 12/12 A3009 RMK AO2 SLP189 T01170117 402060111
KWVI 070734Z AUTO 00000KT 1/4SM FG VV002 11/11 A3009 RMK AO2 T01110111
KWVI 070653Z AUTO 00000KT 1/2SM FG VV002 11/11 A3009 RMK AO2 SLP188 T01110111
KWVI 070553Z AUTO 20003KT 1/2SM FG VV002 11/11 A3008 RMK AO2 SLP187 T01110111 10133 20111 53013
KWVI 070453Z AUTO 00000KT 3/4SM BR VV003 12/12 A3007 RMK AO2 SLP181 T01170117
KWVI 070427Z AUTO 00000KT 1 1/4SM BR OVC003 12/12 A3007 RMK AO2 T01220122
KWVI 070353Z AUTO 00000KT 3/4SM BR VV002 12/12 A3006 RMK AO2 SLP178 T01220122
KWVI 070321Z AUTO 00000KT 1 1/4SM BR OVC002 12/12 A3005 RMK AO2 T01220122
KWVI 070253Z AUTO 00000KT 1 3/4SM BR OVC003 13/13 A3005 RMK AO2 SLP174 T01280128 53001
KWVI 070245Z AUTO 00000KT 2SM BR OVC003 13/13 A3005 RMK AO2 T01280128
KWVI 070219Z AUTO 21004KT 1 1/4SM BR OVC002 13/13 A3005 RMK AO2 T01280128
KWVI 070215Z AUTO 20004KT 2SM BR OVC002 13/13 A3005 RMK AO2 T01280128
KWVI 070208Z AUTO 24003KT 1 3/4SM BR OVC003 13/12 A3004 RMK AO2 VIS 1 1/2V4 T01280122
KWVI 070201Z AUTO 23003KT 2SM BR OVC003 13/12 A3004 RMK AO2 T01280122
KWVI 070153Z AUTO 22004KT 1 1/2SM BR OVC003 13/12 A3004 RMK AO2 VIS 1V3 SLP172 T01280122
KWVI 070148Z AUTO 23003KT 1 3/4SM BR OVC003 13/12 A3004 RMK AO2
KWVI 070053Z AUTO 23004KT 9SM OVC004 13/13 A3004 RMK AO2 SLP173 T01280128
KWVI 070007Z AUTO 21006KT 10SM BKN004 13/13 A3004 RMK AO2 T01330128
KWVI 062353Z AUTO 22006KT 10SM BKN006 14/13 A3004 RMK AO2 SLP173 T01440128 10206 20144 50000
KWVI 062311Z AUTO 25006KT 10SM FEW007 15/13 A3005 RMK AO2 T01500128
KWVI 062253Z AUTO 23008KT 10SM CLR 16/13 A3005 RMK AO2 SLP175 T01610128
KWVI 062153Z AUTO 21008KT 10SM CLR 18/13 A3005 RMK AO2 SLP174 T01780128
KWVI 062053Z AUTO 27008KT 10SM CLR 19/13 A3004 RMK AO2 SLP173 T01890133 56012
KWVI 061953Z AUTO 21007KT 10SM CLR 20/14 A3005 RMK AO2 SLP176 T02000144
KWVI 061853Z AUTO VRB04KT 10SM CLR 19/14 A3006 RMK AO2 SLP180 T01940139
KWVI 061804Z AUTO 24003KT 10SM SCT004 16/13 A3008 RMK AO2 T01610133
KWVI 061753Z AUTO 00000KT 10SM BKN004 15/13 A3008 RMK AO2 SLP185 T01500128 10150 20111 50003
KWVI 061659Z AUTO 15003KT 3SM BR OVC002 13/13 A3008 RMK AO2 T01280128
KWVI 061653Z AUTO 00000KT 1 1/2SM BR OVC002 12/12 A3008 RMK AO2 SLP186 T01220122
KWVI 061638Z AUTO 00000KT 1 1/2SM BR OVC002 12/12 A3008 RMK AO2 T01170117
KWVI 061553Z AUTO 00000KT 3/4SM BR VV003 11/11 A3008 RMK AO2 SLP187 T01110111
KWVI 061523Z AUTO VRB03KT 1/2SM FG VV002 11/11 A3008 RMK AO2 T01110111
KWVI 061514Z AUTO 00000KT 1/4SM FG VV003 12/12 A3007 RMK AO2 T01170117
KWVI 061453Z AUTO 00000KT 1/2SM FG VV002 11/11 A3007 RMK AO2 SLP182 T01110111 53013
KWVI 061353Z AUTO 00000KT 1/2SM FG VV002 12/12 A3005 RMK AO2 SLP176 T01170117
KWVI 061253Z AUTO 00000KT 3/4SM BR VV003 12/12 A3005 RMK AO2 SLP174 T01170117
KWVI 061213Z AUTO 00000KT 1/2SM FG VV002 12/12 A3003 RMK AO2 T01170117
No TAF found for KWVI

KSNS 071153Z AUTO 09003KT 1 1/2SM R31/4500VP6000FT BR OVC002 13/12 A3008 RMK AO2 SLP195 T01280122 10139 20128 55001 TSNO
KSNS 071053Z AUTO 00000KT 1 3/4SM R31/4500VP6000FT BR OVC002 13/12 A3008 RMK AO2 SLP194 T01280122 TSNO
KSNS 071038Z AUTO 00000KT 2 1/2SM R31/5500VP6000FT BR OVC002 13/13 A3008 RMK AO2 VIS 1 1/2V4 T01280128 TSNO
KSNS 070953Z AUTO 00000KT 3SM BR OVC003 13/13 A3008 RMK AO2 SLP195 T01330128 TSNO
KSNS 070853Z AUTO 00000KT 4SM BR OVC003 13/13 A3008 RMK AO2 SLP196 T01330128 50003 TSNO
KSNS 070753Z AUTO 00000KT 5SM BR OVC003 14/13 A3009 RMK AO2 SLP197 T01390128 402560133 TSNO
KSNS 070720Z AUTO 00000KT 3SM BR OVC002 13/13 A3008 RMK AO2 T01330128 TSNO
KSNS 070653Z AUTO 00000KT 2SM BR OVC002 13/13 A3008 RMK AO2 SLP196 T01330128 TSNO
KSNS 070632Z AUTO 29003KT 2SM R31/5500VP6000FT BR OVC002 13/13 A3008 RMK AO2 T01330128 TSNO
KSNS 070612Z AUTO 26003KT 1 3/4SM R31/5000VP6000FT BR OVC002 13/13 A3008 RMK AO2 T01330128 TSNO
KSNS 070558Z AUTO 27004KT 3SM R31/5000VP6000FT BR OVC002 13/13 A3008 RMK AO2 T01330128 TSNO
KSNS 070553Z AUTO 36003KT 1 1/2SM R31/4500VP6000FT BR OVC002 13/13 A3008 RMK AO2 SLP193 T01330128 10167 20133 51014 TSNO
KSNS 070545Z AUTO 35003KT 1 3/4SM R31/5500VP6000FT BR OVC002 13/13 A3007 RMK AO2 VIS 1 1/2V3 T01330128 TSNO
KSNS 070453Z AUTO 34005KT 4SM BR OVC003 14/13 A3006 RMK AO2 SLP188 T01390128 TSNO
KSNS 070422Z AUTO 30005KT 9SM OVC004 14/13 A3006 RMK AO2 T01440128 TSNO
KSNS 070353Z AUTO 33004KT 10SM OVC005 14/13 A3005 RMK AO2 SLP185 T01440128 TSNO
KSNS 070253Z AUTO 32006KT 10SM OVC006 15/13 A3004 RMK AO2 SLPNO T01500128 53000 TSNO
KSNS 070211Z AUTO 33009KT 10SM BKN007 15/13 A3003 RMK AO2 T01500128 TSNO
KSNS 070200Z AUTO 31007KT 10SM SCT007 15/13 A3003 RMK AO2 T01500128 TSNO
KSNS 070153Z 30009KT 10SM BKN007 15/13 A3003 RMK AO2 SLP178 T01500128
KSNS 070106Z 33009KT 10SM BKN008 16/13 A3003 RMK AO2 T01560128
KSNS 070053Z 32010KT 10SM SCT009 16/13 A3003 RMK AO2 SLP178 T01560128
KSNS 070006Z 32010KT 10SM SCT009 17/13 A3003 RMK AO2 T01670128
KSNS 062353Z 32008KT 10SM OVC009 17/13 A3003 RMK AO2 SLP179 T01670128 10256 20167 51001
KSNS 062305Z 33010KT 10SM BKN010 17/13 A3004 RMK AO2 T01720133 $
KSNS 062253Z 32010KT 10SM SCT009 17/13 A3004 RMK AO2 SLP180 T01720128 $
KSNS 062236Z 30012KT 10SM FEW009 A3004 RMK AO2 $
KSNS 062153Z 31013KT 10SM CLR 19/12 A3003 RMK AO2 SLP178 T01890122 $
KSNS 062053Z 30012KT 10SM CLR 22/13 A3003 RMK AO2 SLP178 T02170133 56014 $
KSNS 061953Z 32004KT 10SM CLR 24/12 A3004 RMK AO2 SLP181 T02440122 $
KSNS 061853Z 00000KT 10SM CLR 21/13 A3006 RMK AO2 SLP186 T02060128 $
KSNS 061757Z VRB04KT 8SM SCT006 17/13 A3007 RMK AO2 T01670128 $
KSNS 061753Z VRB03KT 8SM BKN008 17/13 A3007 RMK AO2 SLP191 T01670128 58002 $
KSNS 061722Z 17003KT 7SM OVC005 15/12 A3007 RMK AO2 T01500122 $
KSNS 061653Z 00000KT 9SM OVC004 14/12 A3008 RMK AO2 SLP193 T01440122 $
KSNS 061651Z 00000KT 8SM OVC004 14/12 A3008 RMK AO2 $
KSNS 061600Z 00000KT 10SM OVC005 13/12 A3008 RMK AO2 T01330117 $
KSNS 061553Z 00000KT 10SM OVC003 13/12 A3008 RMK AO2 SLP194 T01330117 $
KSNS 061529Z 24003KT 5SM HZ OVC002 A3007 RMK AO2 $
KSNS 061522Z 26003KT 2 1/2SM BR OVC002 A3007 RMK AO2 VIS 1 1/2V5 $
KSNS 061453Z 25006KT 1SM BR OVC002 A3007 RMK AO2 SLPNO 53016 RVRNO $
KSNS 061424Z 26006KT 1 1/4SM BR OVC003 A3006 RMK AO2 $
KSNS 061411Z 27005KT 2SM BR OVC003 13/12 A3005 RMK AO2 T01330117 $
KSNS 061353Z 28004KT 3SM BR OVC003 13/12 A3005 RMK AO2 SLP183 T01330122
KSNS 061346Z 26003KT 4SM BR OVC002 13/12 A3004 RMK AO2 T01330122
KSNS 061314Z 26003KT 2 1/2SM BR OVC002 14/13 A3004 RMK AO2 T01390128
KSNS 061253Z AUTO 26004KT 1SM BR OVC002 13/12 A3004 RMK AO2 SLP180 T01330122 TSNO RVRNO
KSNS 061223Z AUTO 25005KT 1 3/4SM BR OVC002 13/12 A3003 RMK AO2 T01330122 TSNO

KSNS 071120Z 0712/0812 00000KT 1SM BR OVC002
  FM071700 VRB04KT 5SM BR OVC004
  FM071900 29011KT P6SM SKC
  FM080200 VRB05KT P6SM BKN005
  FM080700 VRB02KT 1SM BR OVC002


KMRY 071154Z AUTO 14004KT 3/4SM R10R/2800V4000FT BR VV002 11/11 A3009 RMK AO2 SLP201 T01110106 10128 20111 55000
KMRY 071117Z AUTO 17003KT 1/2SM R10R/3500V4500FT FG VV002 11/11 A3009 RMK AO2 T01110111
KMRY 071107Z AUTO 00000KT 3/4SM R10R/4000VP6000FT BR OVC001 11/11 A3009 RMK AO2 T01110111
KMRY 071054Z AUTO 00000KT 1 1/4SM R10R/5000VP6000FT BR OVC001 12/12 A3009 RMK AO2 SLP200 T01170117
KMRY 071041Z AUTO 00000KT 1SM R10R/P6000FT BR VV002 11/11 A3009 RMK AO2 T01110111
KMRY 071022Z AUTO 00000KT 3/4SM R10R/P6000FT BR OVC001 11/11 A3009 RMK AO2 T01110111
KMRY 071018Z AUTO 00000KT 1 1/4SM BR OVC002 12/11 A3009 RMK AO2 T01170111
KMRY 070954Z AUTO 00000KT 9SM OVC003 11/11 A3009 RMK AO2 SLP202 T01110111
KMRY 070902Z AUTO 00000KT 9SM OVC002 11/11 A3009 RMK AO2 T01110111
KMRY 070854Z AUTO 00000KT 2SM BR OVC002 11/11 A3009 RMK AO2 SLP202 T01110111 50002
KMRY 070839Z AUTO 00000KT 1 3/4SM BR OVC002 12/12 A3009 RMK AO2 T01170117
KMRY 070801Z AUTO 24003KT 3SM BR OVC002 12/12 A3009 RMK AO2 T01170117
KMRY 070754Z AUTO 21003KT 1 3/4SM BR OVC002 12/12 A3010 RMK AO2 VIS 1V3 SLP203 T01170117 401890111
KMRY 070731Z AUTO 00000KT 3/4SM R10R/2800VP6000FT BR VV002 12/12 A3010 RMK AO2 T01170117
KMRY 070716Z AUTO 28003KT 1 1/2SM R10R/2800VP6000FT BR OVC002 12/12 A3009 RMK AO2 VIS 3/4V5 T01170117
KMRY 070707Z AUTO 00000KT 2 1/2SM BR OVC002 12/12 A3009 RMK AO2 VIS 1 1/2V5 T01170117
KMRY 070658Z AUTO 00000KT 3SM R10R/6000VP6000FT BR OVC001 12/12 A3009 RMK AO2 T01170117
KMRY 070654Z AUTO 31003KT 1 3/4SM R10R/6000VP6000FT BR OVC001 12/12 A3009 RMK AO2 SLP203 T01170117
KMRY 070645Z AUTO 34004KT 3/4SM R10R/4000VP6000FT BR OVC001 12/12 A3009 RMK AO2 T01220122
KMRY 070635Z AUTO 32005KT 1 3/4SM R10R/4000VP6000FT BR OVC001 12/12 A3009 RMK AO2 T01220122
KMRY 070631Z AUTO 30003KT 3SM R10R/4000VP6000FT BR OVC001 12/12 A3009 RMK AO2 T01220122
KMRY 070625Z AUTO 33004KT 1 1/4SM R10R/5000VP6000FT BR OVC001 12/12 A3009 RMK AO2 T01220122
KMRY 070554Z AUTO 33005KT 3/4SM R10R/2800VP6000FT BR VV001 13/13 A3008 RMK AO2 SLP199 T01280128 10167 20128 51013
KMRY 070541Z AUTO 31003KT 3/4SM R10R/3000VP6000FT BR VV001 13/13 A3008 RMK AO2 T01280128
KMRY 070531Z AUTO 00000KT 1/4SM R10R/3000VP6000FT FG OVC001 13/13 A3008 RMK AO2 T01330128
KMRY 070520Z AUTO 28003KT 1 3/4SM R10R/5500VP6000FT BR OVC001 13/13 A3008 RMK AO2 VIS 1 1/4V3 T01330128
KMRY 070518Z AUTO 00000KT 2SM R10R/5500VP6000FT BR OVC002 13/13 A3008 RMK AO2 VIS 1 1/4V3 T01330128
KMRY 070454Z AUTO 29003KT 7SM OVC002 13/13 A3007 RMK AO2 SLP194 T01330128
KMRY 070354Z 35003KT 9SM OVC003 14/13 A3006 RMK AO2 SLP192 T01390128
KMRY 070343Z 00000KT 9SM OVC004 14/13 A3006 RMK AO2 T01390128
KMRY 070254Z 00000KT 10SM OVC006 14/13 A3005 RMK AO2 SLP186 T01440128 55000
KMRY 070154Z 34004KT 10SM OVC008 15/13 A3005 RMK AO2 SLP186 T01500128
KMRY 070130Z 30005KT 10SM BKN011 15/13 A3004 RMK AO2 T01500128
KMRY 070054Z 31004KT 10SM SCT006 16/13 A3004 RMK AO2 SLP185 T01560128
KMRY 062354Z 32007KT 10SM SCT006 17/13 A3005 RMK AO2 SLP186 T01670128 10189 20150 56003
KMRY 062254Z 31008KT 10SM FEW006 17/13 A3005 RMK AO2 SLP188 T01670128
KMRY 062154Z 29008KT 10SM FEW006 17/13 A3005 RMK AO2 WSHFT 2103 SLP187 T01720128
KMRY 062123Z 26010KT 10SM CLR 18/12 A3005 RMK AO2 WSHFT 2103 T01780122
KMRY 062054Z 34007KT 8SM FEW004 17/12 A3005 RMK AO2 SLP189 T01720122 58008
KMRY 061954Z 33007KT 8SM FEW004 16/13 A3007 RMK AO2 SLP194 T01560128
KMRY 061903Z VRB06KT 10SM FEW003 16/12 A3007 RMK AO2 T01560122
KMRY 061854Z 35005KT 10SM CLR 16/12 A3007 RMK AO2 SLP195 T01560122
KMRY 061754Z 31004KT 10SM FEW006 16/12 A3008 RMK AO2 SLP197 T01560122 10156 20117 58001
KMRY 061743Z VRB04KT 10SM SCT004 15/12 A3008 RMK AO2 T01500122
KMRY 061701Z 00000KT 2SM BR OVC002 13/12 A3008 RMK AO2 T01280122
KMRY 061654Z 00000KT 1SM R10R/P6000FT BR OVC002 13/12 A3008 RMK AO2 SLP198 T01280122
KMRY 061652Z 00000KT 1SM R10R/P6000FT BR OVC002 13/12 A3008 RMK AO2
KMRY 061554Z 00000KT 1/2SM R10R/5000VP6000FT FG OVC003 12/12 A3008 RMK AO2 SLP198 T01220122
KMRY 061454Z 28003KT 3/4SM R10R/5500VP6000FT BR OVC002 12/12 A3007 RMK AO2 SLP195 T01170117 53012
KMRY 061433Z 23003KT 3/4SM R10R/P6000FT BR OVC002 12/12 A3007 RMK AO2 T01170117
KMRY 061354Z 00000KT 1SM R10R/P6000FT BR OVC002 12/12 A3006 RMK AO2 SLP190 T01170117
KMRY 061347Z 23004KT 1SM R10R/P6000FT BR OVC001 12/12 A3006 RMK AO2 T01170117
KMRY 061317Z AUTO 26004KT 1 1/2SM BR OVC002 12/12 A3005 RMK AO2 T01170117
KMRY 061308Z AUTO 24003KT 3/4SM R10R/4000VP6000FT BR VV002 12/12 A3005 RMK AO2 T01170117
KMRY 061254Z AUTO 29003KT 1SM R10R/P6000FT BR OVC001 12/12 A3005 RMK AO2 SLP186 T01170117
KMRY 061247Z AUTO 27004KT 1 3/4SM R10R/5500VP6000FT BR OVC001 12/12 A3004 RMK AO2 VIS 1V3 T01170117
KMRY 061241Z AUTO 26003KT 3SM R10R/5500VP6000FT BR OVC001 12/12 A3004 RMK AO2 T01170117
KMRY 061216Z AUTO 00000KT 2 1/2SM BR OVC001 12/12 A3004 RMK AO2 T01220122

KMRY 071120Z 0712/0812 00000KT 1SM BR OVC002
  TEMPO 0713/0716 1/4SM FG VV001
  FM071700 VRB03KT 3SM BR OVC003
  FM071900 33007KT P6SM SCT006
  FM080200 VRB04KT P6SM BKN005
  FM080800 VRB02KT 1SM BR OVC002


KSJC 071204Z AUTO 27003KT 10SM BKN011 15/13 A3007 RMK AO2 T01500128
KSJC 071153Z AUTO 00000KT 10SM SCT011 15/13 A3007 RMK AO2 SLP182 T01500128 10178 20150 53001
KSJC 071053Z AUTO 00000KT 10SM CLR 16/13 A3006 RMK AO2 SLP179 T01560128
KSJC 070953Z AUTO 00000KT 10SM CLR 16/13 A3007 RMK AO2 SLP182 T01560133
KSJC 070853Z AUTO 00000KT 10SM CLR 16/13 A3007 RMK AO2 SLP181 T01610133 51004
KSJC 070753Z AUTO 28003KT 10SM CLR 17/14 A3007 RMK AO2 SLP180 T01670139 402670139
KSJC 070653Z 00000KT 10SM FEW013 17/14 A3006 RMK AO2 SLP180 T01720144
KSJC 070553Z 35004KT 10SM FEW014 18/14 A3006 RMK AO2 SLP177 T01780144 10244 20172 51017
KSJC 070453Z 31004KT 10SM CLR 18/14 A3004 RMK AO2 SLP171 T01780144
KSJC 070353Z 32007KT 10SM CLR 19/14 A3003 RMK AO2 SLP167 T01890144
KSJC 070253Z 35005KT 10SM CLR 20/14 A3001 RMK AO2 SLP160 T02000139 53005
KSJC 070153Z 32006KT 10SM FEW120 FEW200 21/12 A3000 RMK AO2 SLP157 T02110122
KSJC 070053Z 30007KT 10SM FEW120 SCT200 SCT250 24/14 A2999 RMK AO2 SLP155 T02390139
KSJC 062353Z 32009KT 10SM BKN180 BKN250 24/14 A2999 RMK AO2 SLP155 T02390144 10267 20183 56004
KSJC 062253Z 33012KT 10SM BKN180 BKN250 26/13 A2999 RMK AO2 SLP156 T02560133
KSJC 062153Z 32010KT 10SM BKN180 BKN250 26/13 A2999 RMK AO2 SLP156 T02560133
KSJC 062053Z 32008KT 10SM SCT180 SCT250 26/14 A3000 RMK AO2 SLP159 T02610139 58020
KSJC 061953Z 31005KT 10SM FEW090 SCT120 SCT160 26/13 A3002 RMK AO2 SLP165 T02560133
KSJC 061853Z 00000KT 7SM FEW090 SCT120 SCT180 22/14 A3004 RMK AO2 SLP172 T02220139
KSJC 061753Z 00000KT 6SM HZ FEW090 SCT120 SCT180 18/14 A3006 RMK AO2 SLP178 T01830139 10189 20139 50002
KSJC 061653Z 00000KT 4SM BR FEW000 BKN005 OVC007 17/14 A3007 RMK AO2 SLP182 T01670144
KSJC 061553Z 00000KT 4SM BR FEW000 BKN005 OVC007 16/14 A3007 RMK AO2 SLP182 T01560139
KSJC 061453Z 00000KT 4SM BR FEW000 BKN006 OVC008 16/13 A3005 RMK AO2 SLP176 T01560133 53016
KSJC 061353Z 24003KT 10SM FEW001 SCT006 BKN008 14/12 A3003 RMK AO2 SLP169 T01440122
KSJC 061253Z 00000KT 10SM CLR 14/12 A3002 RMK AO2 SLP165 T01440122

KSJC 071120Z 0712/0812 VRB02KT P6SM SKC
  TEMPO 0714/0717 6SM BR BKN007
  FM071700 VRB03KT P6SM FEW010
  FM071900 32008KT P6SM SKC
  FM080400 VRB04KT P6SM FEW010


KSFO 071156Z 29009KT 10SM FEW001 12/11 A3007 RMK AO2 SLP183 T01170111 10133 20117 53001
KSFO 071056Z 30008KT 10SM FEW001 12/11 A3007 RMK AO2 SLP181 T01170111
KSFO 070956Z 30007KT 10SM FEW001 12/12 A3007 RMK AO2 SLP182 T01220117
KSFO 070856Z 30007KT 10SM FEW001 FEW014 12/12 A3007 RMK AO2 SLP182 T01220117 51005
KSFO 070756Z 30009KT 10SM FEW003 13/12 A3007 RMK AO2 SLP182 T01280117 402060122
KSFO 070656Z 30007KT 10SM FEW004 FEW007 13/12 A3006 RMK AO2 SLP180 T01280117
KSFO 070556Z 31008KT 10SM FEW002 13/12 A3005 RMK AO2 SLP176 T01330117 10183 20133 51014
KSFO 070456Z 29008KT 10SM FEW002 13/12 A3005 RMK AO2 SLP174 T01330117
KSFO 070356Z 30012KT 10SM FEW003 FEW200 14/12 A3003 RMK AO2 SLP167 T01390122
KSFO 070256Z 30014KT 10SM FEW002 FEW200 14/12 A3001 RMK AO2 SLP163 T01390122 53007
KSFO 070156Z 30012KT 10SM FEW003 BKN200 15/13 A3000 RMK AO2 SLP159 T01500128
KSFO 070056Z 30015KT 10SM FEW003 BKN200 17/13 A2999 RMK AO2 SLP156 T01670128
KSFO 062356Z 31016G23KT 10SM FEW004 BKN200 18/13 A2999 RMK AO2 SLP156 T01830128 10206 20172 56009
KSFO 062256Z 30017KT 10SM FEW004 BKN200 19/13 A3000 RMK AO2 SLP160 T01890128
KSFO 062156Z 31018KT 10SM FEW004 BKN200 19/13 A3000 RMK AO2 SLP160 T01890128
KSFO 062056Z 31012KT 10SM FEW006 BKN200 21/13 A3002 RMK AO2 SLP165 T02060133 58015
KSFO 061956Z 30013KT 10SM FEW006 BKN200 20/13 A3004 RMK AO2 WSHFT 1939 SLP172 T02000133
KSFO 061856Z 06004KT 10SM FEW006 BKN200 18/14 A3005 RMK AO2 SLP176 T01830144
KSFO 061756Z 07005KT 10SM FEW006 SCT200 17/14 A3006 RMK AO2 SLP180 T01720139 10172 20122 50005
KSFO 061656Z 07004KT 10SM FEW006 SCT200 17/13 A3006 RMK AO2 SLP180 T01670128
KSFO 061556Z 30004KT 10SM FEW005 BKN200 14/12 A3006 RMK AO2 SLP180 T01440122
KSFO 061456Z 30007KT 10SM FEW005 SCT200 13/12 A3005 RMK AO2 SLP175 T01280122 53015
KSFO 061356Z 30007KT 10SM FEW005 SCT200 12/12 A3003 RMK AO2 SLP170 T01220117
KSFO 061256Z 30008KT 10SM FEW005 12/12 A3002 RMK AO2 SLP164 T01220117

KSFO 071120Z 0712/0818 30007KT P6SM FEW007
  TEMPO 0714/0717 BKN006
  FM072100 30016KT P6SM SKC
  FM080300 30010KT P6SM FEW005
  FM081000 VRB04KT P6SM BKN007
  FM081700 29005KT P6SM FEW007


KHAF 071155Z AUTO 00000KT 1/2SM FG OVC002 10/10 A3009 RMK AO2
KHAF 071135Z AUTO 07004KT 1 1/2SM BR OVC002 10/10 A3009 RMK AO2
KHAF 071115Z AUTO 00000KT 1/4SM FG OVC002 10/10 A3008 RMK AO2
KHAF 071055Z AUTO 07004KT 3/4SM BR OVC002 10/10 A3009 RMK AO2
KHAF 071035Z AUTO 08004KT 2 1/2SM BR OVC002 10/10 A3009 RMK AO2
KHAF 071015Z AUTO 07005KT 1/4SM FG OVC002 10/10 A3009 RMK AO2
KHAF 070955Z AUTO 06004KT 1/4SM FG OVC002 10/10 A3009 RMK AO2
KHAF 070935Z AUTO 08003KT 1/4SM FG OVC002 11/11 A3009 RMK AO2
KHAF 070915Z AUTO 00000KT 1/4SM FG OVC002 11/11 A3009 RMK AO2
KHAF 070855Z AUTO 00000KT 1/2SM BR OVC002 11/11 A3009 RMK AO2
KHAF 070835Z AUTO 00000KT 3/4SM BR OVC002 11/11 A3009 RMK AO2
KHAF 070815Z AUTO 08003KT 3/4SM BR OVC002 11/11 A3009 RMK AO2
KHAF 070755Z AUTO 08004KT 3/4SM BR OVC002 11/11 A3009 RMK AO2
KHAF 070735Z AUTO 00000KT 1/2SM BR OVC002 11/11 A3009 RMK AO2
KHAF 070715Z AUTO 06004KT 1SM BR OVC002 11/11 A3009 RMK AO2
KHAF 070655Z AUTO 08004KT 1/2SM FG OVC002 11/11 A3009 RMK AO2
KHAF 070635Z AUTO 08004KT 1/4SM FG OVC002 11/11 A3009 RMK AO2
KHAF 070615Z AUTO 07005KT 1/4SM FG OVC002 11/11 A3009 RMK AO2
KHAF 070555Z AUTO 07003KT 1/2SM FG OVC002 12/12 A3008 RMK AO2
KHAF 070535Z AUTO 07004KT 3/4SM BR OVC003 12/12 A3008 RMK AO2
KHAF 070515Z AUTO 00000KT 1 3/4SM BR OVC003 12/12 A3007 RMK AO2
KHAF 070455Z AUTO 00000KT 1SM BR OVC003 12/12 A3007 RMK AO2
KHAF 070435Z AUTO 00000KT 1SM BR OVC003 12/12 A3007 RMK AO2
KHAF 070415Z AUTO 00000KT 3/4SM BR OVC003 12/12 A3006 RMK AO2
KHAF 070355Z AUTO 00000KT 1/2SM FG OVC002 12/12 A3006 RMK AO2
KHAF 070335Z AUTO 00000KT 1/4SM FG OVC002 12/12 A3006 RMK AO2
KHAF 070315Z AUTO 31003KT 1/4SM FG OVC002 12/12 A3005 RMK AO2
KHAF 070255Z AUTO 00000KT 1/4SM FG OVC002 12/12 A3005 RMK AO2
KHAF 070235Z AUTO 26003KT M1/4SM FG OVC002 12/12 A3005 RMK AO2
KHAF 070215Z AUTO 00000KT M1/4SM FG OVC002 13/13 A3004 RMK AO2
KHAF 070155Z AUTO 00000KT M1/4SM FG OVC002 13/13 A3004 RMK AO2
KHAF 070135Z AUTO 00000KT M1/4SM FG OVC002 13/13 A3004 RMK AO2
KHAF 070115Z AUTO 00000KT 1SM BR OVC003 13/13 A3004 RMK AO2 VIS 1/2V1 3/4
KHAF 070055Z AUTO 00000KT 4SM BR OVC003 13/13 A3004 RMK AO2
KHAF 070035Z AUTO 00000KT 5SM BR OVC003 13/13 A3004 RMK AO2
KHAF 070015Z AUTO 25004KT 6SM BR OVC004 14/14 A3004 RMK AO2
KHAF 062355Z AUTO 28004KT 8SM OVC004 14/14 A3004 RMK AO2
KHAF 062335Z AUTO 00000KT 7SM OVC005 14/14 A3005 RMK AO2
KHAF 062315Z AUTO 27005KT 8SM OVC005 14/14 A3005 RMK AO2
KHAF 062255Z AUTO 25005KT 9SM OVC006 14/14 A3005 RMK AO2
KHAF 062235Z AUTO 26005KT 8SM OVC006 14/14 A3006 RMK AO2
KHAF 062215Z AUTO VRB04KT 8SM OVC005 14/14 A3006 RMK AO2
KHAF 062155Z AUTO VRB05KT 9SM OVC005 14/14 A3006 RMK AO2
KHAF 062135Z AUTO VRB03KT 9SM OVC004 14/14 A3006 RMK AO2
KHAF 062115Z AUTO 27005KT 9SM OVC004 14/14 A3006 RMK AO2
KHAF 062055Z AUTO 25006KT 8SM OVC005 14/14 A3007 RMK AO2
KHAF 062035Z AUTO VRB04KT 9SM OVC006 15/14 A3007 RMK AO2
KHAF 062015Z AUTO VRB04KT 8SM OVC006 15/14 A3008 RMK AO2
KHAF 061955Z AUTO 26005KT 9SM OVC005 14/14 A3008 RMK AO2
KHAF 061935Z AUTO 24003KT 9SM OVC005 14/14 A3008 RMK AO2
KHAF 061915Z AUTO 24005KT 9SM OVC004 14/14 A3008 RMK AO2
KHAF 061855Z AUTO 00000KT 7SM OVC004 14/14 A3008 RMK AO2
KHAF 061835Z AUTO 9SM OVC004 14/14 A3008 RMK AO2
KHAF 061815Z AUTO 4SM BR OVC003 13/13 A3008 RMK AO2
KHAF 061755Z AUTO 3SM BR OVC003 13/13 A3008 RMK AO2
KHAF 061735Z AUTO 27005KT 4SM BR OVC003 13/13 A3008 RMK AO2
KHAF 061715Z AUTO 00000KT 3SM BR OVC003 13/13 A3008 RMK AO2
KHAF 061655Z AUTO 29004KT 1/2SM FG OVC003 12/12 A3008 RMK AO2
KHAF 061635Z AUTO 00000KT 1SM BR OVC003 12/12 A3008 RMK AO2
KHAF 061615Z AUTO 00000KT 1/4SM FG OVC003 12/12 A3008 RMK AO2
KHAF 061555Z AUTO 08003KT 1/4SM FG OVC003 12/12 A3007 RMK AO2
KHAF 061535Z AUTO 00000KT 1/4SM FG OVC003 12/12 A3007 RMK AO2
KHAF 061515Z AUTO 07003KT 1/4SM FG OVC003 12/12 A3007 RMK AO2
KHAF 061455Z AUTO 06004KT 3/4SM BR OVC003 12/12 A3007 RMK AO2
KHAF 061435Z AUTO 07005KT 1SM BR OVC003 11/11 A3006 RMK AO2
KHAF 061415Z AUTO 07004KT 2SM BR OVC002 11/11 A3006 RMK AO2
KHAF 061355Z AUTO 06004KT 2 1/2SM BR OVC002 11/11 A3006 RMK AO2
KHAF 061335Z AUTO 07005KT 1SM BR OVC002 11/11 A3005 RMK AO2
KHAF 061315Z AUTO 07006KT 1/2SM BR OVC002 11/11 A3005 RMK AO2
KHAF 061255Z AUTO 06005KT 1/2SM FG OVC002 11/11 A3004 RMK AO2
KHAF 061235Z AUTO 06003KT 1/2SM BR OVC002 11/11 A3004 RMK AO2
KHAF 061215Z AUTO 07003KT 3/4SM BR OVC002 11/11 A3003 RMK AO2
No TAF found for KHAF